createdAt,value
2023-04-16T00:00:48.298Z,102278.81
2023-04-16T00:03:16.270Z,102274.09
2023-04-16T00:05:43.150Z,102283.28
2023-04-16T00:08:10.920Z,102265.66
2023-04-16T00:10:37.658Z,102266.38
2023-04-16T00:13:04.317Z,102261.91
2023-04-16T00:15:31.120Z,102262.88
2023-04-16T00:17:57.826Z,102261.91
2023-04-16T00:20:24.613Z,102267.75
2023-04-16T00:22:51.563Z,102267.59
2023-04-16T00:25:18.175Z,102268.44
2023-04-16T00:27:44.913Z,102274.00
2023-04-16T00:30:12.080Z,102280.09
2023-04-16T00:32:38.797Z,102273.16
2023-04-16T00:35:06.061Z,102276.63
2023-04-16T00:37:33.082Z,102278.44
2023-04-16T00:39:59.735Z,102278.28
2023-04-16T00:42:26.446Z,102279.13
2023-04-16T00:44:53.174Z,102277.34
2023-04-16T00:47:21.745Z,102276.50
2023-04-16T00:49:49.117Z,102284.84
2023-04-16T00:52:15.779Z,102271.09
2023-04-16T00:54:42.428Z,102287.59
2023-04-16T00:57:10.188Z,102286.50
2023-04-16T00:59:36.984Z,102292.47
2023-04-16T01:02:03.627Z,102277.59
2023-04-16T01:04:30.958Z,102294.25
2023-04-16T01:06:57.698Z,102289.28
2023-04-16T01:09:24.499Z,102289.13
2023-04-16T01:11:51.080Z,102288.84
2023-04-16T01:14:17.644Z,102286.22
2023-04-16T01:16:44.329Z,102296.63
2023-04-16T01:19:11.164Z,102289.00
2023-04-16T01:21:37.879Z,102300.38
2023-04-16T01:24:05.214Z,102293.28
2023-04-16T01:26:31.973Z,102287.75
2023-04-16T01:28:59.624Z,102290.53
2023-04-16T01:31:26.405Z,102292.88
2023-04-16T01:33:53.043Z,102283.28
2023-04-16T01:36:19.810Z,102292.19
2023-04-16T01:38:46.678Z,102283.44
2023-04-16T01:41:13.340Z,102290.94
2023-04-16T01:43:40.421Z,102285.94
2023-04-16T01:46:20.786Z,102287.72
2023-04-16T01:48:47.965Z,102282.88
2023-04-16T01:51:14.705Z,102281.22
2023-04-16T01:53:41.278Z,102277.59
2023-04-16T01:56:07.892Z,102278.44
2023-04-16T01:58:34.737Z,102274.94
2023-04-16T02:01:01.658Z,102280.09
2023-04-16T02:03:28.397Z,102281.34
2023-04-16T02:05:55.038Z,102294.41
2023-04-16T02:08:24.030Z,102287.16
2023-04-16T02:10:50.901Z,102286.63
2023-04-16T02:13:17.513Z,102294.66
2023-04-16T02:15:47.721Z,102294.41
2023-04-16T02:18:14.835Z,102284.00
2023-04-16T02:20:45.888Z,102288.16
2023-04-16T02:23:15.305Z,102290.91
2023-04-16T02:25:45.514Z,102288.16
2023-04-16T02:28:14.426Z,102296.47
2023-04-16T02:30:41.961Z,102290.22
2023-04-16T02:33:10.616Z,102287.59
2023-04-16T02:35:38.835Z,102298.03
2023-04-16T02:38:06.452Z,102299.81
2023-04-16T02:40:33.145Z,102302.47
2023-04-16T02:42:59.806Z,102298.84
2023-04-16T02:45:26.357Z,102302.47
2023-04-16T02:47:52.969Z,102295.50
2023-04-16T02:50:19.585Z,102295.50
2023-04-16T02:52:46.212Z,102301.91
2023-04-16T02:55:13.087Z,102293.84
2023-04-16T02:57:39.767Z,102294.81
2023-04-16T03:00:07.088Z,102298.03
2023-04-16T03:02:33.915Z,102292.75
2023-04-16T03:05:00.728Z,102291.75
2023-04-16T03:07:27.248Z,102289.97
2023-04-16T03:09:53.979Z,102288.84
2023-04-16T03:12:20.720Z,102292.34
2023-04-16T03:14:47.307Z,102286.78
2023-04-16T03:17:14.067Z,102292.34
2023-04-16T03:19:40.677Z,102290.78
2023-04-16T03:22:07.222Z,102286.50
2023-04-16T03:24:33.829Z,102291.06
2023-04-16T03:27:02.000Z,102295.25
2023-04-16T03:29:28.586Z,102294.41
2023-04-16T03:31:55.357Z,102292.75
2023-04-16T03:34:21.908Z,102294.53
2023-04-16T03:36:48.518Z,102298.03
2023-04-16T03:39:15.304Z,102290.78
2023-04-16T03:41:41.901Z,102301.47
2023-04-16T03:44:08.633Z,102299.13
2023-04-16T03:46:35.554Z,102307.59
2023-04-16T03:49:02.229Z,102302.31
2023-04-16T03:51:28.959Z,102304.53
2023-04-16T03:53:55.625Z,102318.13
2023-04-16T03:56:22.555Z,102320.91
2023-04-16T03:58:49.113Z,102314.94
2023-04-16T04:01:15.853Z,102312.56
2023-04-16T04:03:42.660Z,102307.44
2023-04-16T04:06:09.899Z,102310.88
2023-04-16T04:08:36.748Z,102311.72
2023-04-16T04:11:03.326Z,102298.81
2023-04-16T04:13:29.856Z,102298.81
2023-04-16T04:15:56.888Z,102304.09
2023-04-16T04:18:23.551Z,102304.81
2023-04-16T04:20:50.210Z,102306.31
2023-04-16T04:23:16.842Z,102303.69
2023-04-16T04:25:46.280Z,102298.41
2023-04-16T04:28:12.921Z,102296.34
2023-04-16T04:30:39.547Z,102299.81
2023-04-16T04:33:06.386Z,102302.44
2023-04-16T04:35:33.836Z,102304.25
2023-04-16T04:38:02.576Z,102299.25
2023-04-16T04:40:29.343Z,102297.56
2023-04-16T04:42:56.162Z,102299.38
2023-04-16T04:45:25.531Z,102304.66
2023-04-16T04:47:55.362Z,102304.66
2023-04-16T04:50:22.376Z,102299.13
2023-04-16T04:52:48.895Z,102303.25
2023-04-16T04:55:16.119Z,102303.25
2023-04-16T04:57:42.821Z,102304.25
2023-04-16T05:00:10.069Z,102298.13
2023-04-16T05:02:36.830Z,102305.34
2023-04-16T05:05:04.257Z,102300.63
2023-04-16T05:07:32.297Z,102308.25
2023-04-16T05:09:59.130Z,102304.81
2023-04-16T05:12:25.886Z,102302.81
2023-04-16T05:14:52.491Z,102307.13
2023-04-16T05:17:19.300Z,102307.13
2023-04-16T05:19:45.898Z,102307.13
2023-04-16T05:22:12.722Z,102308.66
2023-04-16T05:24:39.276Z,102299.91
2023-04-16T05:27:06.595Z,102309.94
2023-04-16T05:29:33.149Z,102310.75
2023-04-16T05:31:59.821Z,102309.81
2023-04-16T05:34:26.729Z,102306.03
2023-04-16T05:36:53.371Z,102310.22
2023-04-16T05:39:20.337Z,102310.91
2023-04-16T05:41:46.955Z,102309.94
2023-04-16T05:44:13.600Z,102314.94
2023-04-16T05:46:40.228Z,102311.75
2023-04-16T05:49:06.829Z,102301.91
2023-04-16T05:51:33.572Z,102310.94
2023-04-16T05:54:00.123Z,102311.50
2023-04-16T05:56:27.139Z,102319.13
2023-04-16T05:58:53.721Z,102320.41
2023-04-16T06:01:21.318Z,102325.69
2023-04-16T06:03:47.979Z,102325.53
2023-04-16T06:06:14.617Z,102317.34
2023-04-16T06:08:41.635Z,102326.63
2023-04-16T06:11:08.246Z,102320.53
2023-04-16T06:13:34.780Z,102321.63
2023-04-16T06:16:01.473Z,102337.47
2023-04-16T06:18:28.126Z,102329.56
2023-04-16T06:20:54.922Z,102319.69
2023-04-16T06:23:21.620Z,102327.22
2023-04-16T06:25:48.241Z,102326.41
2023-04-16T06:28:15.198Z,102336.53
2023-04-16T06:30:43.373Z,102337.66
2023-04-16T06:33:11.237Z,102343.78
2023-04-16T06:35:37.804Z,102342.94
2023-04-16T06:38:04.354Z,102343.34
2023-04-16T06:40:31.067Z,102348.63
2023-04-16T06:42:57.694Z,102365.44
2023-04-16T06:45:24.718Z,102370.41
2023-04-16T06:47:52.661Z,102364.53
2023-04-16T06:50:19.458Z,102371.72
2023-04-16T06:52:46.167Z,102375.16
2023-04-16T06:55:13.777Z,102381.56
2023-04-16T06:57:40.908Z,102395.13
2023-04-16T07:00:08.197Z,102401.56
2023-04-16T07:02:35.227Z,102403.06
2023-04-16T07:05:02.281Z,102418.00
2023-04-16T07:07:28.908Z,102419.63
2023-04-16T07:09:55.541Z,102420.78
2023-04-16T07:12:22.954Z,102425.81
2023-04-16T07:14:49.734Z,102439.44
2023-04-16T07:17:16.459Z,102437.81
2023-04-16T07:19:43.002Z,102435.19
2023-04-16T07:22:09.663Z,102439.44
2023-04-16T07:24:36.614Z,102424.78
2023-04-16T07:27:03.274Z,102438.41
2023-04-16T07:29:30.128Z,102437.09
2023-04-16T07:31:57.615Z,102442.34
2023-04-16T07:34:24.406Z,102446.59
2023-04-16T07:36:51.151Z,102455.41
2023-04-16T07:39:17.908Z,102457.50
2023-04-16T07:41:44.563Z,102457.25
2023-04-16T07:44:11.206Z,102463.41
2023-04-16T07:46:46.453Z,102490.31
2023-04-16T07:49:13.989Z,102510.25
2023-04-16T07:51:40.746Z,102520.25
2023-04-16T07:54:07.308Z,102525.66
2023-04-16T07:56:33.983Z,102522.31
2023-04-16T07:59:07.827Z,102539.50
2023-04-16T08:01:41.659Z,102529.88
2023-04-16T08:04:08.523Z,102536.91
2023-04-16T08:06:35.214Z,102542.72
2023-04-16T08:09:01.816Z,102540.13
2023-04-16T08:11:28.989Z,102539.53
2023-04-16T08:13:55.953Z,102536.97
2023-04-16T08:16:22.809Z,102535.06
2023-04-16T08:18:49.503Z,102543.94
2023-04-16T08:21:16.126Z,102543.59
2023-04-16T08:23:42.761Z,102545.88
2023-04-16T08:26:09.309Z,102552.16
2023-04-16T08:28:35.881Z,102547.97
2023-04-16T08:31:02.575Z,102555.69
2023-04-16T08:33:29.342Z,102557.53
2023-04-16T08:35:55.898Z,102560.78
2023-04-16T08:38:22.600Z,102559.34
2023-04-16T08:40:49.413Z,102562.47
2023-04-16T08:43:18.406Z,102569.91
2023-04-16T08:45:47.740Z,102569.91
2023-04-16T08:48:16.289Z,102571.28
2023-04-16T08:50:44.431Z,102570.78
2023-04-16T08:53:19.363Z,102573.63
2023-04-16T08:55:50.486Z,102571.84
2023-04-16T08:58:22.236Z,102571.00
2023-04-16T09:00:49.618Z,102567.09
2023-04-16T09:03:16.589Z,102581.59
2023-04-16T09:05:44.368Z,102582.53
2023-04-16T09:08:11.215Z,102567.59
2023-04-16T09:10:37.875Z,102575.69
2023-04-16T09:13:04.462Z,102577.13
2023-04-16T09:15:33.992Z,102572.09
2023-04-16T09:18:02.121Z,102561.91
2023-04-16T09:20:29.215Z,102563.44
2023-04-16T09:22:57.564Z,102562.28
2023-04-16T09:25:25.117Z,102568.09
2023-04-16T09:27:51.803Z,102567.66
2023-04-16T09:30:24.028Z,102574.16
2023-04-16T09:32:52.775Z,102572.53
2023-04-16T09:35:20.111Z,102574.63
2023-04-16T09:37:57.685Z,102585.53
2023-04-16T09:40:27.215Z,102579.44
2023-04-16T09:42:58.317Z,102581.44
2023-04-16T09:45:24.844Z,102579.03
2023-04-16T09:47:51.659Z,102575.63
2023-04-16T09:50:19.761Z,102581.31
2023-04-16T09:52:50.089Z,102583.84
2023-04-16T09:55:16.791Z,102587.09
2023-04-16T09:57:43.352Z,102588.91
2023-04-16T10:00:11.481Z,102595.75
2023-04-16T10:02:41.918Z,102609.53
2023-04-16T10:05:09.086Z,102601.50
2023-04-16T10:07:37.295Z,102612.00
2023-04-16T10:10:05.081Z,102612.63
2023-04-16T10:12:33.101Z,102617.50
2023-04-16T10:14:59.830Z,102605.72
2023-04-16T10:17:30.414Z,102609.00
2023-04-16T10:19:58.436Z,102617.75
2023-04-16T10:22:26.432Z,102613.38
2023-04-16T10:24:54.916Z,102616.03
2023-04-16T10:27:21.844Z,102612.03
2023-04-16T10:29:49.348Z,102618.81
2023-04-16T10:32:18.312Z,102624.19
2023-04-16T10:34:45.210Z,102630.28
2023-04-16T10:37:12.677Z,102630.88
2023-04-16T10:39:39.449Z,102624.91
2023-04-16T10:42:13.418Z,102631.66
2023-04-16T10:44:44.390Z,102641.25
2023-04-16T10:47:13.787Z,102640.38
2023-04-16T10:49:42.728Z,102637.34
2023-04-16T10:52:19.291Z,102638.97
2023-04-16T10:54:48.063Z,102636.56
2023-04-16T10:57:19.932Z,102640.13
2023-04-16T10:59:48.905Z,102646.09
2023-04-16T11:02:18.018Z,102644.34
2023-04-16T11:04:49.206Z,102651.22
2023-04-16T11:07:18.719Z,102643.13
2023-04-16T11:09:48.928Z,102646.22
2023-04-16T11:12:20.484Z,102644.03
2023-04-16T11:14:52.482Z,102642.19
2023-04-16T11:17:20.521Z,102643.03
2023-04-16T11:19:48.258Z,102642.66
2023-04-16T11:22:17.900Z,102634.63
2023-04-16T11:24:46.363Z,102625.28
2023-04-16T11:27:15.425Z,102639.59
2023-04-16T11:29:42.394Z,102638.13
2023-04-16T11:32:09.264Z,102639.22
2023-04-16T11:34:44.227Z,102644.00
2023-04-16T11:37:10.988Z,102640.81
2023-04-16T11:39:51.948Z,102640.81
2023-04-16T11:42:24.763Z,102640.34
2023-04-16T11:44:56.202Z,102639.94
2023-04-16T11:47:24.552Z,102636.47
2023-04-16T11:49:51.726Z,102628.44
2023-04-16T11:52:34.240Z,102634.44
2023-04-16T11:55:02.660Z,102631.63
2023-04-16T11:57:30.674Z,102628.75
2023-04-16T12:00:02.710Z,102627.13
2023-04-16T12:02:38.225Z,102631.66
2023-04-16T12:05:05.775Z,102636.66
2023-04-16T12:07:32.898Z,102640.06
2023-04-16T12:10:08.964Z,102635.81
2023-04-16T12:12:36.080Z,102639.56
2023-04-16T12:15:04.076Z,102647.91
2023-04-16T12:17:33.268Z,102653.00
2023-04-16T12:20:02.894Z,102657.38
2023-04-16T12:22:37.707Z,102653.97
2023-04-16T12:25:11.244Z,102653.59
2023-04-16T12:27:53.404Z,102660.72
2023-04-16T12:30:22.906Z,102663.56
2023-04-16T12:32:52.268Z,102673.25
2023-04-16T12:35:33.729Z,102676.56
2023-04-16T12:38:01.594Z,102682.59
2023-04-16T12:40:28.350Z,102694.59
2023-04-16T12:42:55.547Z,102682.75
2023-04-16T12:45:22.570Z,102678.84
2023-04-16T12:47:50.594Z,102682.88
2023-04-16T12:50:17.992Z,102676.22
2023-04-16T12:52:46.037Z,102675.50
2023-04-16T12:55:13.971Z,102659.34
2023-04-16T12:57:41.281Z,102664.84
2023-04-16T13:00:08.631Z,102666.88
2023-04-16T13:02:35.345Z,102670.13
2023-04-16T13:05:02.196Z,102667.00
2023-04-16T13:07:31.825Z,102674.13
2023-04-16T13:09:58.456Z,102681.44
2023-04-16T13:12:25.056Z,102686.97
2023-04-16T13:14:51.642Z,102675.13
2023-04-16T13:17:18.309Z,102684.31
2023-04-16T13:19:45.781Z,102680.16
2023-04-16T13:22:12.507Z,102685.81
2023-04-16T13:24:39.208Z,102685.53
2023-04-16T13:27:08.233Z,102685.13
2023-04-16T13:29:36.743Z,102680.19
2023-04-16T13:32:04.036Z,102681.75
2023-04-16T13:34:30.823Z,102669.13
2023-04-16T13:36:57.378Z,102680.66
2023-04-16T13:39:24.188Z,102670.63
2023-04-16T13:41:51.521Z,102670.78
2023-04-16T13:44:18.200Z,102669.13
2023-04-16T13:46:47.688Z,102670.09
2023-04-16T13:49:14.901Z,102674.06
2023-04-16T13:51:44.661Z,102673.72
2023-04-16T13:54:11.363Z,102667.09
2023-04-16T13:56:38.058Z,102663.91
2023-04-16T13:59:04.660Z,102668.50
2023-04-16T14:01:31.355Z,102676.78
2023-04-16T14:03:59.695Z,102678.66
2023-04-16T14:06:27.098Z,102682.97
2023-04-16T14:08:53.785Z,102686.47
2023-04-16T14:11:21.066Z,102684.31
2023-04-16T14:13:47.644Z,102690.31
2023-04-16T14:16:14.255Z,102689.28
2023-04-16T14:18:42.800Z,102690.94
2023-04-16T14:21:09.559Z,102682.25
2023-04-16T14:23:36.400Z,102680.13
2023-04-16T14:26:03.866Z,102683.09
2023-04-16T14:28:30.559Z,102696.44
2023-04-16T14:30:57.174Z,102685.41
2023-04-16T14:33:23.813Z,102676.22
2023-04-16T14:35:51.495Z,102677.59
2023-04-16T14:38:18.485Z,102672.50
2023-04-16T14:40:45.169Z,102680.84
2023-04-16T14:43:12.175Z,102679.59
2023-04-16T14:45:39.295Z,102678.13
2023-04-16T14:48:06.354Z,102677.03
2023-04-16T14:50:37.971Z,102676.13
2023-04-16T14:53:07.751Z,102673.41
2023-04-16T14:55:34.467Z,102680.91
2023-04-16T14:58:01.488Z,102669.38
2023-04-16T15:00:28.359Z,102667.19
2023-04-16T15:02:55.613Z,102658.69
2023-04-16T15:05:22.398Z,102655.97
2023-04-16T15:07:49.187Z,102657.94
2023-04-16T15:10:15.819Z,102655.97
2023-04-16T15:12:42.599Z,102661.31
2023-04-16T15:15:10.060Z,102665.59
2023-04-16T15:17:36.755Z,102665.84
2023-04-16T15:20:10.970Z,102656.88
2023-04-16T15:22:38.350Z,102660.53
2023-04-16T15:25:06.544Z,102656.88
2023-04-16T15:27:33.323Z,102669.63
2023-04-16T15:30:00.043Z,102653.50
2023-04-16T15:32:26.678Z,102660.25
2023-04-16T15:34:53.397Z,102650.78
2023-04-16T15:37:20.035Z,102645.09
2023-04-16T15:39:46.575Z,102649.94
2023-04-16T15:42:13.325Z,102644.38
2023-04-16T15:44:40.421Z,102648.72
2023-04-16T15:47:08.621Z,102644.09
2023-04-16T15:49:35.572Z,102646.59
2023-04-16T15:52:02.460Z,102645.50
2023-04-16T15:54:30.278Z,102649.00
2023-04-16T15:56:56.857Z,102654.63
2023-04-16T15:59:23.862Z,102658.59
2023-04-16T16:01:51.038Z,102652.66
2023-04-16T16:04:17.833Z,102648.53
2023-04-16T16:06:44.487Z,102648.88
2023-04-16T16:09:11.417Z,102650.28
2023-04-16T16:11:38.446Z,102648.53
2023-04-16T16:14:05.052Z,102646.31
2023-04-16T16:16:32.912Z,102651.25
2023-04-16T16:18:59.656Z,102644.00
2023-04-16T16:21:27.406Z,102644.50
2023-04-16T16:23:54.046Z,102634.91
2023-04-16T16:26:22.986Z,102627.50
2023-04-16T16:28:49.630Z,102634.69
2023-04-16T16:31:16.336Z,102642.53
2023-04-16T16:33:43.363Z,102634.34
2023-04-16T16:36:11.416Z,102624.50
2023-04-16T16:38:40.069Z,102635.31
2023-04-16T16:41:07.389Z,102624.69
2023-04-16T16:43:35.977Z,102624.22
2023-04-16T16:46:02.609Z,102619.06
2023-04-16T16:48:29.562Z,102618.91
2023-04-16T16:50:56.181Z,102622.13
2023-04-16T16:53:22.752Z,102620.53
2023-04-16T16:55:49.343Z,102613.91
2023-04-16T16:58:16.005Z,102618.91
2023-04-16T17:00:42.694Z,102614.44
2023-04-16T17:03:09.738Z,102616.25
2023-04-16T17:05:36.771Z,102617.22
2023-04-16T17:08:03.718Z,102612.34
2023-04-16T17:10:30.460Z,102618.19
2023-04-16T17:12:57.248Z,102613.81
2023-04-16T17:15:23.957Z,102619.03
2023-04-16T17:17:51.009Z,102615.41
2023-04-16T17:20:17.822Z,102616.41
2023-04-16T17:22:44.448Z,102610.41
2023-04-16T17:25:11.259Z,102612.44
2023-04-16T17:27:37.971Z,102603.00
2023-04-16T17:30:05.813Z,102608.28
2023-04-16T17:32:33.322Z,102619.09
2023-04-16T17:35:01.875Z,102618.97
2023-04-16T17:37:28.662Z,102622.94
2023-04-16T17:39:55.649Z,102613.63
2023-04-16T17:42:22.259Z,102620.16
2023-04-16T17:44:48.824Z,102617.66
2023-04-16T17:47:15.403Z,102606.94
2023-04-16T17:49:42.017Z,102610.03
2023-04-16T17:52:08.651Z,102611.56
2023-04-16T17:54:35.291Z,102616.47
2023-04-16T17:57:02.183Z,102609.63
2023-04-16T17:59:28.938Z,102613.53
2023-04-16T18:01:56.719Z,102613.00
2023-04-16T18:04:23.702Z,102606.44
2023-04-16T18:06:50.806Z,102606.00
2023-04-16T18:09:19.202Z,102612.72
2023-04-16T18:11:46.111Z,102621.09
2023-04-16T18:14:16.704Z,102632.53
2023-04-16T18:16:43.451Z,102630.03
2023-04-16T18:19:10.023Z,102630.84
2023-04-16T18:21:36.667Z,102623.34
2023-04-16T18:24:03.599Z,102616.78
2023-04-16T18:26:31.040Z,102623.34
2023-04-16T18:28:57.880Z,102624.31
2023-04-16T18:31:24.714Z,102622.66
2023-04-16T18:33:56.623Z,102620.13
2023-04-16T18:36:26.124Z,102621.63
2023-04-16T18:39:01.539Z,102620.53
2023-04-16T18:41:29.871Z,102621.78
2023-04-16T18:43:56.729Z,102615.78
2023-04-16T18:46:23.435Z,102619.13
2023-04-16T18:48:50.135Z,102617.31
2023-04-16T18:51:17.034Z,102610.34
2023-04-16T18:53:45.675Z,102618.84
2023-04-16T18:56:12.715Z,102610.50
2023-04-16T18:58:39.302Z,102613.84
2023-04-16T19:01:10.966Z,102613.69
2023-04-16T19:03:38.092Z,102608.69
2023-04-16T19:06:05.969Z,102611.47
2023-04-16T19:08:33.020Z,102613.25
2023-04-16T19:10:59.688Z,102608.25
2023-04-16T19:13:26.408Z,102611.84
2023-04-16T19:15:59.732Z,102612.81
2023-04-16T19:18:26.603Z,102603.78
2023-04-16T19:21:00.214Z,102603.09
2023-04-16T19:23:27.175Z,102603.09
2023-04-16T19:25:55.747Z,102606.41
2023-04-16T19:28:23.699Z,102602.97
2023-04-16T19:30:51.482Z,102600.31
2023-04-16T19:33:18.998Z,102599.47
2023-04-16T19:35:46.810Z,102595.19
2023-04-16T19:38:13.549Z,102600.59
2023-04-16T19:40:41.161Z,102597.25
2023-04-16T19:43:08.091Z,102603.25
2023-04-16T19:45:35.205Z,102604.06
2023-04-16T19:48:01.951Z,102597.13
2023-04-16T19:50:28.517Z,102596.97
2023-04-16T19:52:55.067Z,102599.47
2023-04-16T19:55:22.831Z,102587.34
2023-04-16T19:57:49.662Z,102588.19
2023-04-16T20:00:17.082Z,102595.53
2023-04-16T20:02:43.801Z,102585.13
2023-04-16T20:05:10.572Z,102584.25
2023-04-16T20:07:37.154Z,102578.84
2023-04-16T20:10:04.041Z,102579.41
2023-04-16T20:12:30.626Z,102582.91
2023-04-16T20:14:57.371Z,102581.50
2023-04-16T20:17:24.057Z,102580.81
2023-04-16T20:19:51.246Z,102580.91
2023-04-16T20:22:18.828Z,102579.13
2023-04-16T20:24:47.721Z,102579.41
2023-04-16T20:27:15.361Z,102572.31
2023-04-16T20:29:42.163Z,102574.13
2023-04-16T20:32:08.798Z,102569.53
2023-04-16T20:34:36.635Z,102567.03
2023-04-16T20:37:03.509Z,102559.94
2023-04-16T20:39:34.033Z,102564.25
2023-04-16T20:42:00.939Z,102564.25
2023-04-16T20:44:33.429Z,102559.13
2023-04-16T20:47:00.142Z,102562.97
2023-04-16T20:49:26.776Z,102564.25
2023-04-16T20:51:53.667Z,102555.47
2023-04-16T20:54:20.204Z,102545.75
2023-04-16T20:56:47.237Z,102549.22
2023-04-16T20:59:14.078Z,102537.81
2023-04-16T21:01:40.807Z,102548.81
2023-04-16T21:04:08.021Z,102547.00
2023-04-16T21:06:38.610Z,102546.19
2023-04-16T21:09:06.078Z,102540.91
2023-04-16T21:11:34.779Z,102538.25
2023-04-16T21:14:05.526Z,102531.84
2023-04-16T21:16:32.600Z,102527.94
2023-04-16T21:19:00.686Z,102517.13
2023-04-16T21:21:27.847Z,102516.00
2023-04-16T21:23:54.528Z,102513.38
2023-04-16T21:26:21.561Z,102514.88
2023-04-16T21:28:48.440Z,102512.25
2023-04-16T21:31:18.376Z,102508.50
2023-04-16T21:33:45.133Z,102512.00
2023-04-16T21:36:12.057Z,102507.81
2023-04-16T21:38:38.714Z,102514.78
2023-04-16T21:41:05.407Z,102508.50
2023-04-16T21:43:34.819Z,102506.72
2023-04-16T21:46:01.440Z,102505.72
2023-04-16T21:48:28.603Z,102507.66
2023-04-16T21:50:59.929Z,102501.81
2023-04-16T21:53:32.023Z,102511.56
2023-04-16T21:55:58.928Z,102509.88
2023-04-16T21:58:28.727Z,102501.28
2023-04-16T22:00:55.402Z,102504.03
2023-04-16T22:03:27.671Z,102511.00
2023-04-16T22:06:00.931Z,102508.22
2023-04-16T22:08:31.282Z,102501.97
2023-04-16T22:11:02.843Z,102500.88
2023-04-16T22:13:32.462Z,102496.41
2023-04-16T22:16:02.926Z,102500.03
2023-04-16T22:18:32.997Z,102491.25
2023-04-16T22:21:00.506Z,102492.22
2023-04-16T22:23:27.467Z,102486.25
2023-04-16T22:25:55.390Z,102478.31
2023-04-16T22:28:22.889Z,102480.41
2023-04-16T22:30:50.046Z,102475.25
2023-04-16T22:33:16.918Z,102467.63
2023-04-16T22:35:43.708Z,102464.13
2023-04-16T22:38:10.589Z,102460.53
2023-04-16T22:40:37.265Z,102460.53
2023-04-16T22:43:03.963Z,102452.75
2023-04-16T22:45:30.613Z,102449.28
2023-04-16T22:47:57.302Z,102455.13
2023-04-16T22:50:24.166Z,102456.63
2023-04-16T22:52:50.781Z,102448.72
2023-04-16T22:55:17.430Z,102443.19
2023-04-16T22:57:43.982Z,102439.69
2023-04-16T23:00:15.858Z,102440.66
2023-04-16T23:02:43.182Z,102445.69
2023-04-16T23:05:10.086Z,102429.28
2023-04-16T23:07:36.727Z,102438.72
2023-04-16T23:10:03.395Z,102432.47
2023-04-16T23:12:30.069Z,102428.84
2023-04-16T23:14:56.984Z,102431.50
2023-04-16T23:17:23.571Z,102430.78
2023-04-16T23:19:50.254Z,102426.63
2023-04-16T23:22:17.140Z,102420.50
2023-04-16T23:24:43.719Z,102425.91
2023-04-16T23:27:10.927Z,102412.72
2023-04-16T23:29:37.662Z,102411.72
2023-04-16T23:32:04.612Z,102410.78
2023-04-16T23:34:31.594Z,102412.44
2023-04-16T23:36:58.376Z,102411.59
2023-04-16T23:39:24.997Z,102401.16
2023-04-16T23:41:51.525Z,102412.72
2023-04-16T23:44:18.142Z,102413.56
2023-04-16T23:46:44.756Z,102406.16
2023-04-16T23:49:11.593Z,102413.81
2023-04-16T23:51:38.409Z,102409.50
2023-04-16T23:54:05.046Z,102402.59
2023-04-16T23:56:31.686Z,102400.09
2023-04-16T23:58:58.368Z,102391.88
